Weather at Karara Airport

Public forecast

Using degrees Celsius for public forecast. Weather courtesy of forecast.io.

Closest aviation weather report (METAR) to Karara Airport

Closest report is Geraldton Airport, 107.0 nm (198.2 km) WNW. Retrieved 2022/08/18 05:30 UTC (8 minutes ago):

YGEL 180530Z AUTO 09011KT 9999 // NCD 18/08 Q1026 RF000/0000

Closest aviation forecast (TAF) to Karara Airport

Closest forecast is Geraldton Airport, 107.0 nm (198.2 km) WNW. Retrieved 2022-08-18 00:00 UTC (6 hours ago):

TAF YGEL 172310Z 1800/1818 10010KT CAVOK FM180800 14008KT CAVOK FM181500 09008KT CAVOK